Time;durP1;ratioP1;P1;durP2;ratioP2;P2;SDS_P1;SDS_P2;PMS_P1;PMS_P2;Temp;Humidity;BMP_temperature;BMP_pressure;BME280_temperature;BME280_humidity;BME280_pressure;Samples;Min_cycle;Max_cycle;Signal;HPM_P1;HPM_P2
2022/05/28 00:04:47;;;;;;;;;;;;;;;11.04;75.25;99904.41;10372095;28;19936;-64
2022/05/28 00:09:51;;;;;;;;;;;;;;;11.05;75.42;99894.84;10372029;28;19926;-66
2022/05/28 00:14:54;;;;;;;;;;;;;;;10.89;76.24;99904.66;10371979;28;19936;-68
2022/05/28 00:19:58;;;;;;;;;;;;;;;10.85;76.41;99916.03;10371703;28;19925;-66
2022/05/28 00:25:01;;;;;;;;;;;;;;;10.90;76.84;99914.19;10371458;28;19925;-65
2022/05/28 00:30:05;;;;;;;;;;;;;;;10.88;76.85;99915.94;10373340;28;19931;-67
2022/05/28 00:35:11;;;;;;;;;;;;;;;10.75;77.72;99918.81;10378753;28;19932;-67
2022/05/28 00:40:15;;;;;;;;;;;;;;;10.80;77.74;99920.44;10378597;28;19925;-67
2022/05/28 00:45:19;;;;;;;;;;;;;;;10.65;78.45;99928.47;10378173;28;19925;-64
2022/05/28 00:50:23;;;;;;;;;;;;;;;10.64;78.74;99911.19;10378075;28;19926;-64
2022/05/28 00:55:26;;;;;;;;;;;;;;;10.52;79.71;99914.00;10378070;28;19926;-65
2022/05/28 01:00:29;;;;;;;;;;;;;;;10.48;79.91;99909.75;10377539;28;19925;-62
2022/05/28 01:05:37;;;;;;;;;;;;;;;10.41;80.18;99910.72;10377603;28;19929;-64
2022/05/28 01:10:42;;;;;;;;;;;;;;;10.45;80.33;99902.03;10377402;28;19937;-67
2022/05/28 01:15:49;;;;;;;;;;;;;;;10.44;80.57;99895.09;10377297;28;19976;-65
2022/05/28 01:20:57;;;;;;;;;;;;;;;10.24;82.18;99894.59;10377544;28;19940;-66
2022/05/28 01:26:05;;;;;;;;;;;;;;;10.43;81.08;99896.00;10377113;28;20251;-65
2022/05/28 01:31:13;;;;;;;;;;;;;;;10.40;81.58;99890.88;10376934;28;19937;-67
2022/05/28 01:36:18;;;;;;;;;;;;;;;10.42;81.37;99889.13;10376670;28;20255;-65
2022/05/28 01:41:21;;;;;;;;;;;;;;;10.39;81.83;99884.81;10375539;28;20362;-65
2022/05/28 01:46:27;;;;;;;;;;;;;;;10.29;82.20;99878.06;10376462;28;19936;-66
2022/05/28 01:51:34;;;;;;;;;;;;;;;10.02;84.43;99882.81;10376381;28;20247;-65
2022/05/28 01:56:38;;;;;;;;;;;;;;;10.13;83.73;99886.16;10375827;28;19925;-66
2022/05/28 02:01:43;;;;;;;;;;;;;;;10.30;83.09;99884.13;10375977;28;19952;-69
2022/05/28 02:06:46;;;;;;;;;;;;;;;10.41;82.28;99875.28;10375805;28;20235;-71
2022/05/28 02:11:59;;;;;;;;;;;;;;;10.31;82.99;99878.91;10375671;28;19926;-71
2022/05/28 02:17:10;;;;;;;;;;;;;;;10.33;83.21;99881.47;10375303;28;19925;-68
2022/05/28 02:22:17;;;;;;;;;;;;;;;10.45;82.54;99876.09;10375305;28;19925;-67
2022/05/28 02:27:22;;;;;;;;;;;;;;;10.25;83.54;99860.00;10375183;28;19974;-66
2022/05/28 02:32:26;;;;;;;;;;;;;;;10.26;83.84;99866.91;10375173;28;19926;-67
2022/05/28 02:37:29;;;;;;;;;;;;;;;10.58;82.12;99859.41;10374925;28;19937;-63
2022/05/28 02:42:33;;;;;;;;;;;;;;;10.47;82.27;99850.97;10374514;28;19926;-64
2022/05/28 02:47:37;;;;;;;;;;;;;;;9.94;85.60;99861.34;10374350;28;19926;-69
2022/05/28 02:52:41;;;;;;;;;;;;;;;10.08;85.44;99854.19;10373983;28;19925;-66
2022/05/28 02:57:44;;;;;;;;;;;;;;;10.12;85.40;99843.78;10374270;28;20261;-67
2022/05/28 03:02:49;;;;;;;;;;;;;;;10.40;83.68;99852.81;10373801;28;19925;-66
2022/05/28 03:07:52;;;;;;;;;;;;;;;10.38;83.79;99849.41;10373769;28;19936;-66
2022/05/28 03:12:55;;;;;;;;;;;;;;;10.62;83.05;99850.69;10373643;28;20036;-67
2022/05/28 03:17:59;;;;;;;;;;;;;;;10.52;83.42;99859.53;10370399;28;19925;-66
2022/05/28 03:23:03;;;;;;;;;;;;;;;10.64;83.59;99846.31;10370314;28;19929;-66
2022/05/28 03:28:06;;;;;;;;;;;;;;;10.84;82.30;99851.97;10370018;28;19925;-66
2022/05/28 03:33:10;;;;;;;;;;;;;;;10.60;83.04;99855.03;10369900;28;19925;-67
2022/05/28 03:38:13;;;;;;;;;;;;;;;10.44;84.24;99845.81;10370026;28;19926;-65
2022/05/28 03:43:16;;;;;;;;;;;;;;;10.61;84.10;99838.59;10372532;28;20339;-66
2022/05/28 03:48:21;;;;;;;;;;;;;;;10.73;83.37;99837.50;10372575;28;19926;-66
2022/05/28 03:53:25;;;;;;;;;;;;;;;10.68;84.51;99832.41;10372455;28;19929;-64
2022/05/28 03:58:30;;;;;;;;;;;;;;;10.58;85.01;99838.63;10372143;28;19936;-69
2022/05/28 04:03:35;;;;;;;;;;;;;;;10.66;85.21;99847.16;10371848;28;19932;-65
2022/05/28 04:08:39;;;;;;;;;;;;;;;10.93;83.57;99838.81;10371854;28;19932;-67
2022/05/28 04:13:43;;;;;;;;;;;;;;;10.79;84.45;99845.16;10371646;28;20414;-68
2022/05/28 04:18:47;;;;;;;;;;;;;;;10.68;86.04;99845.41;10371653;28;20021;-64
2022/05/28 04:23:50;;;;;;;;;;;;;;;10.68;86.19;99848.00;10372384;28;19925;-64
2022/05/28 04:28:54;;;;;;;;;;;;;;;10.83;85.15;99845.09;10371497;28;19926;-67
2022/05/28 04:33:58;;;;;;;;;;;;;;;10.71;87.97;99847.94;10371352;28;20403;-69
2022/05/28 04:39:01;;;;;;;;;;;;;;;10.94;87.28;99842.28;10371164;28;19925;-65
2022/05/28 04:44:04;;;;;;;;;;;;;;;10.73;88.87;99853.94;10371126;28;19925;-67
2022/05/28 04:49:09;;;;;;;;;;;;;;;10.69;88.19;99851.41;10370936;28;19936;-70
2022/05/28 04:54:12;;;;;;;;;;;;;;;10.94;86.47;99845.72;10371212;28;19933;-66
2022/05/28 04:59:15;;;;;;;;;;;;;;;10.89;86.64;99849.31;10370736;28;19936;-69
2022/05/28 05:04:19;;;;;;;;;;;;;;;11.12;84.62;99855.75;10370351;28;19952;-67
2022/05/28 05:09:22;;;;;;;;;;;;;;;10.97;84.66;99850.88;10370558;28;19939;-66
2022/05/28 05:14:25;;;;;;;;;;;;;;;11.18;83.75;99862.56;10370392;28;19925;-67
2022/05/28 05:19:30;;;;;;;;;;;;;;;11.08;83.01;99864.47;10376402;28;19925;-66
2022/05/28 05:24:33;;;;;;;;;;;;;;;11.02;83.43;99855.97;10377075;28;19948;-66
2022/05/28 05:29:37;;;;;;;;;;;;;;;11.18;82.18;99862.56;10376949;28;20372;-64
2022/05/28 05:34:42;;;;;;;;;;;;;;;11.33;82.05;99863.09;10376955;28;19933;-65
2022/05/28 05:39:45;;;;;;;;;;;;;;;11.54;80.74;99862.63;10377085;28;19931;-66
2022/05/28 05:44:48;;;;;;;;;;;;;;;11.66;80.11;99852.88;10376389;28;19925;-64
2022/05/28 05:49:52;;;;;;;;;;;;;;;11.57;80.22;99846.13;10376375;28;19926;-65
2022/05/28 05:54:55;;;;;;;;;;;;;;;11.73;79.55;99862.25;10376748;28;20016;-67
2022/05/28 05:59:58;;;;;;;;;;;;;;;11.66;79.36;99850.28;10375760;28;19926;-71
2022/05/28 06:05:03;;;;;;;;;;;;;;;11.56;79.80;99855.66;10375837;28;19925;-67
2022/05/28 06:10:07;;;;;;;;;;;;;;;11.75;78.63;99850.09;10375458;28;20249;-66
2022/05/28 06:15:12;;;;;;;;;;;;;;;11.78;76.58;99852.59;10375721;28;19936;-65
2022/05/28 06:20:16;;;;;;;;;;;;;;;11.81;75.75;99843.00;10375337;28;19952;-69
2022/05/28 06:25:19;;;;;;;;;;;;;;;11.87;74.21;99840.25;10375078;28;20283;-67
2022/05/28 06:30:22;;;;;;;;;;;;;;;11.84;73.21;99837.72;10374392;28;19932;-66
2022/05/28 06:35:27;;;;;;;;;;;;;;;11.90;72.13;99839.31;10374869;28;19926;-67
2022/05/28 06:40:31;;;;;;;;;;;;;;;11.82;71.94;99836.06;10374746;28;19926;-66
2022/05/28 06:45:34;;;;;;;;;;;;;;;11.91;68.87;99836.69;10374471;28;19926;-68
2022/05/28 06:56:02;;;;;;;;;;;;;;;12.31;67.29;99847.81;10378504;28;19926;-68
2022/05/28 07:01:06;;;;;;;;;;;;;;;12.29;67.52;99843.53;10373740;28;19925;-69
2022/05/28 07:06:11;;;;;;;;;;;;;;;12.36;65.71;99829.47;10373818;28;19925;-69
2022/05/28 07:11:16;;;;;;;;;;;;;;;12.21;66.04;99832.47;10373550;28;19925;-67
2022/05/28 07:16:19;;;;;;;;;;;;;;;12.00;64.63;99841.66;10372791;28;19925;-69
2022/05/28 07:21:23;;;;;;;;;;;;;;;12.11;65.25;99826.66;10370481;28;19934;-66
2022/05/28 07:26:27;;;;;;;;;;;;;;;12.37;64.05;99839.00;10370023;28;20010;-66
2022/05/28 07:31:30;;;;;;;;;;;;;;;12.54;62.91;99823.81;10015738;28;10000362;-69
2022/05/28 07:36:35;;;;;;;;;;;;;;;12.66;62.62;99834.75;10329338;28;19926;-59
2022/05/28 07:41:38;;;;;;;;;;;;;;;12.57;62.71;99827.19;10328205;28;19937;-60
2022/05/28 07:46:43;;;;;;;;;;;;;;;12.73;61.61;99835.44;10329038;28;19926;-61
2022/05/28 07:51:47;;;;;;;;;;;;;;;12.61;62.63;99840.97;10329160;28;19926;-67
2022/05/28 07:56:50;;;;;;;;;;;;;;;12.18;65.87;99837.78;10330551;28;19926;-65
2022/05/28 08:01:53;;;;;;;;;;;;;;;12.34;65.42;99836.47;10331586;28;19937;-68
2022/05/28 08:06:58;;;;;;;;;;;;;;;12.55;62.28;99843.72;10331506;28;19926;-69
2022/05/28 08:12:01;;;;;;;;;;;;;;;12.71;60.91;99838.09;10331320;28;19926;-66
2022/05/28 08:17:04;;;;;;;;;;;;;;;12.77;60.71;99843.13;10331373;28;20002;-68
2022/05/28 08:27:29;;;;;;;;;;;;;;;12.77;60.39;99834.44;10331029;28;19925;-68
2022/05/28 08:32:32;;;;;;;;;;;;;;;12.65;61.12;99826.97;10331024;28;19926;-67
2022/05/28 08:37:37;;;;;;;;;;;;;;;12.90;60.75;99833.22;10330859;28;19936;-65
2022/05/28 08:42:40;;;;;;;;;;;;;;;13.00;60.96;99823.38;10330807;28;19925;-69
2022/05/28 08:47:47;;;;;;;;;;;;;;;12.70;59.70;99810.31;10330409;28;20343;-68
2022/05/28 08:52:56;;;;;;;;;;;;;;;12.64;59.94;99820.06;10334819;28;19926;-72
2022/05/28 08:58:06;;;;;;;;;;;;;;;12.85;58.69;99808.19;10337316;28;19964;-66
2022/05/28 09:03:10;;;;;;;;;;;;;;;13.11;58.45;99813.56;10337168;28;20250;-69
2022/05/28 09:08:18;;;;;;;;;;;;;;;13.09;58.19;99816.22;10336954;28;20240;-68
2022/05/28 09:13:25;;;;;;;;;;;;;;;13.26;57.61;99819.16;10336982;28;20242;-68
2022/05/28 09:18:33;;;;;;;;;;;;;;;13.41;58.49;99823.91;10336814;28;19936;-66
2022/05/28 09:23:42;;;;;;;;;;;;;;;13.65;57.95;99817.94;10336721;28;19945;-70
2022/05/28 09:28:50;;;;;;;;;;;;;;;13.36;58.57;99824.94;10336628;28;19926;-70
2022/05/28 09:34:01;;;;;;;;;;;;;;;13.58;59.30;99811.22;10336303;28;20350;-65
2022/05/28 09:39:10;;;;;;;;;;;;;;;14.22;57.73;99798.72;10336286;28;19926;-63
2022/05/28 09:44:19;;;;;;;;;;;;;;;14.62;56.09;99796.44;10336495;28;19936;-66
2022/05/28 09:49:23;;;;;;;;;;;;;;;14.88;55.01;99788.53;10336069;28;20004;-67
2022/05/28 09:54:30;;;;;;;;;;;;;;;15.44;52.76;99783.81;10335607;28;19926;-67
2022/05/28 09:59:35;;;;;;;;;;;;;;;15.06;53.63;99793.09;10335371;28;19926;-67
2022/05/28 10:04:45;;;;;;;;;;;;;;;15.64;52.88;99782.13;10334465;28;19990;-64
2022/05/28 10:09:50;;;;;;;;;;;;;;;15.80;52.44;99788.44;10335477;28;19925;-68
2022/05/28 10:15:00;;;;;;;;;;;;;;;14.33;58.36;99843.59;10335257;28;19936;-66
2022/05/28 10:20:05;;;;;;;;;;;;;;;12.82;65.64;99859.47;10334836;28;19926;-66
2022/05/28 10:25:14;;;;;;;;;;;;;;;12.34;70.41;99854.69;10334748;28;19926;-66
2022/05/28 10:30:24;;;;;;;;;;;;;;;12.83;66.96;99857.72;10334903;28;19926;-66
2022/05/28 10:35:28;;;;;;;;;;;;;;;13.31;65.36;99872.00;10334506;28;19926;-68
2022/05/28 10:40:32;;;;;;;;;;;;;;;13.85;64.29;99844.28;10334188;28;19926;-68
2022/05/28 10:45:41;;;;;;;;;;;;;;;14.58;63.48;99839.28;10333951;28;19936;-66
2022/05/28 10:50:52;;;;;;;;;;;;;;;14.05;62.78;99840.19;10333996;28;19936;-66
2022/05/28 10:56:04;;;;;;;;;;;;;;;14.04;62.78;99839.31;10333681;28;19936;-66
2022/05/28 11:01:16;;;;;;;;;;;;;;;13.75;65.55;99840.22;10333331;28;19936;-68
2022/05/28 11:06:27;;;;;;;;;;;;;;;13.37;68.45;99856.22;10333256;28;19959;-68
2022/05/28 11:11:40;;;;;;;;;;;;;;;12.99;71.54;99872.03;10333436;28;19926;-70
2022/05/28 11:16:52;;;;;;;;;;;;;;;13.03;66.27;99876.28;10333116;28;19926;-69
2022/05/28 11:22:00;;;;;;;;;;;;;;;12.56;65.87;99890.53;10332985;28;19925;-67
2022/05/28 11:27:10;;;;;;;;;;;;;;;12.95;64.25;99883.44;10332494;28;19925;-67
2022/05/28 11:32:16;;;;;;;;;;;;;;;13.88;61.53;99885.06;10332588;28;19925;-66
2022/05/28 11:37:24;;;;;;;;;;;;;;;15.60;56.38;99859.00;10332729;28;19926;-65
2022/05/28 11:42:36;;;;;;;;;;;;;;;15.80;54.72;99871.31;10332487;28;19926;-66
2022/05/28 11:47:43;;;;;;;;;;;;;;;15.15;57.31;99850.25;10332350;28;20297;-69
2022/05/28 11:52:50;;;;;;;;;;;;;;;13.64;67.22;99871.03;10331913;28;19925;-67
2022/05/28 11:57:56;;;;;;;;;;;;;;;14.69;66.81;99844.94;10332092;28;19926;-67
2022/05/28 12:03:01;;;;;;;;;;;;;;;16.77;61.21;99824.50;10331582;28;19925;-70
2022/05/28 12:08:04;;;;;;;;;;;;;;;16.82;54.96;99814.66;10332017;28;19926;-65
2022/05/28 12:13:09;;;;;;;;;;;;;;;17.60;52.70;99812.78;10331428;28;19926;-65
2022/05/28 12:18:21;;;;;;;;;;;;;;;17.23;52.22;99805.78;10331804;28;19926;-67
2022/05/28 12:23:28;;;;;;;;;;;;;;;17.61;49.82;99818.91;10331216;28;20328;-67
2022/05/28 12:28:48;;;;;;;;;;;;;;;17.13;51.63;99829.88;10330429;28;19940;-66
2022/05/28 12:33:52;;;;;;;;;;;;;;;16.42;51.46;99827.75;10331078;28;19929;-67
2022/05/28 12:39:01;;;;;;;;;;;;;;;15.30;55.28;99827.91;10330937;28;20039;-67
2022/05/28 12:44:10;;;;;;;;;;;;;;;14.89;57.67;99827.66;10330856;28;19925;-66
2022/05/28 12:49:21;;;;;;;;;;;;;;;14.22;60.95;99845.69;10330592;28;19926;-68
2022/05/28 12:54:25;;;;;;;;;;;;;;;13.74;63.07;99855.94;10330494;28;19926;-65
2022/05/28 12:59:34;;;;;;;;;;;;;;;13.60;65.18;99873.75;10330252;28;19941;-64
2022/05/28 13:04:41;;;;;;;;;;;;;;;13.79;70.59;99847.06;10250440;28;19927;-69
2022/05/28 13:09:44;;;;;;;;;;;;;;;14.85;66.10;99856.59;10250168;28;19926;-66
2022/05/28 13:15:12;;;;;;;;;;;;;;;14.58;65.15;99865.38;10250033;28;19927;-65
2022/05/28 13:20:31;;;;;;;;;;;;;;;15.97;60.85;99868.91;10249619;28;19927;-66
2022/05/28 13:25:55;;;;;;;;;;;;;;;16.31;58.80;99839.59;10252168;28;19927;-65
2022/05/28 13:31:02;;;;;;;;;;;;;;;17.34;56.87;99842.03;10249244;28;20248;-66
2022/05/28 13:36:07;;;;;;;;;;;;;;;17.61;54.72;99850.41;10249312;28;19927;-65
2022/05/28 13:41:11;;;;;;;;;;;;;;;17.75;53.96;99859.34;10255105;28;19926;-68
2022/05/28 13:46:16;;;;;;;;;;;;;;;16.72;54.23;99859.69;10255855;28;19933;-70
2022/05/28 13:51:21;;;;;;;;;;;;;;;15.30;60.41;99873.22;10255848;28;19927;-65
2022/05/28 13:56:25;;;;;;;;;;;;;;;14.32;65.72;99879.31;10255532;28;19933;-67
2022/05/28 14:01:30;;;;;;;;;;;;;;;14.42;63.90;99879.84;10286168;28;19991;-67
2022/05/28 14:06:37;;;;;;;;;;;;;;;14.08;66.21;99892.28;10335517;28;19925;-67
2022/05/28 14:11:40;;;;;;;;;;;;;;;13.73;69.57;99889.00;10335244;28;19936;-68
2022/05/28 14:16:48;;;;;;;;;;;;;;;13.31;73.23;99858.13;10335361;28;19937;-68
2022/05/28 14:21:52;;;;;;;;;;;;;;;13.48;71.02;99861.94;10334980;28;20120;-67
2022/05/28 14:26:58;;;;;;;;;;;;;;;13.51;70.13;99871.44;10334435;28;19926;-68
2022/05/28 14:32:05;;;;;;;;;;;;;;;13.84;69.07;99863.44;10334704;28;19936;-64
2022/05/28 14:37:22;;;;;;;;;;;;;;;13.56;69.08;99872.97;10334511;28;20309;-68
2022/05/28 14:42:29;;;;;;;;;;;;;;;13.62;70.81;99869.34;10334197;28;19925;-66
2022/05/28 14:47:35;;;;;;;;;;;;;;;13.41;71.29;99873.44;10334231;28;19930;-65
2022/05/28 14:52:41;;;;;;;;;;;;;;;13.24;70.73;99882.66;10333841;28;19936;-69
2022/05/28 14:57:44;;;;;;;;;;;;;;;13.31;70.85;99882.44;10333752;28;19926;-70
2022/05/28 15:02:49;;;;;;;;;;;;;;;12.74;80.67;99891.81;10333340;28;19937;-69
2022/05/28 15:07:55;;;;;;;;;;;;;;;12.28;88.45;99899.09;10333432;28;19926;-69
2022/05/28 15:13:08;;;;;;;;;;;;;;;12.02;90.51;99906.66;10333217;28;20252;-67
2022/05/28 15:18:14;;;;;;;;;;;;;;;11.62;94.27;99910.13;10333265;28;19945;-69
2022/05/28 15:23:17;;;;;;;;;;;;;;;11.75;97.42;99915.09;10333091;28;19936;-66
2022/05/28 15:28:20;;;;;;;;;;;;;;;11.71;100.00;99879.63;10332968;28;19936;-67
2022/05/28 15:33:26;;;;;;;;;;;;;;;11.89;100.00;99877.47;10332765;28;20224;-67
2022/05/28 15:38:29;;;;;;;;;;;;;;;11.96;100.00;99866.03;10333078;28;19936;-67
2022/05/28 15:43:32;;;;;;;;;;;;;;;11.97;100.00;99866.91;10332285;28;19929;-66
2022/05/28 15:48:37;;;;;;;;;;;;;;;11.83;100.00;99879.34;10332294;28;20347;-68
2022/05/28 15:53:45;;;;;;;;;;;;;;;12.02;100.00;99883.25;10332041;28;19930;-66
2022/05/28 15:58:48;;;;;;;;;;;;;;;12.00;100.00;99887.63;10331621;28;19948;-69
2022/05/28 16:03:54;;;;;;;;;;;;;;;12.24;100.00;99887.03;10330553;28;19925;-69
2022/05/28 16:08:57;;;;;;;;;;;;;;;12.40;100.00;99898.78;10331598;28;19986;-67
2022/05/28 16:14:02;;;;;;;;;;;;;;;11.86;100.00;99900.94;10331461;28;19936;-68
2022/05/28 16:19:06;;;;;;;;;;;;;;;12.03;100.00;99896.22;10331446;28;20339;-66
2022/05/28 16:24:09;;;;;;;;;;;;;;;12.24;97.27;99902.66;10331059;28;20362;-65
2022/05/28 16:29:13;;;;;;;;;;;;;;;11.95;100.00;99915.47;10331042;28;19940;-67
2022/05/28 16:34:17;;;;;;;;;;;;;;;11.61;100.00;99912.75;10331068;28;19925;-66
2022/05/28 16:39:20;;;;;;;;;;;;;;;11.74;100.00;99921.16;10330956;28;19926;-69
2022/05/28 16:44:24;;;;;;;;;;;;;;;11.59;100.00;99922.31;10330066;28;19929;-67
2022/05/28 16:49:28;;;;;;;;;;;;;;;11.66;100.00;99925.66;10355698;28;19926;-66
2022/05/28 16:54:31;;;;;;;;;;;;;;;11.59;100.00;99927.53;10370753;28;19925;-68
2022/05/28 16:59:34;;;;;;;;;;;;;;;11.43;100.00;99934.78;10370888;28;19961;-69
2022/05/28 17:04:39;;;;;;;;;;;;;;;11.41;100.00;99938.28;10370464;28;20235;-68
2022/05/28 17:09:45;;;;;;;;;;;;;;;11.51;100.00;99937.19;10370485;28;20016;-69
2022/05/28 17:14:48;;;;;;;;;;;;;;;11.45;100.00;99940.81;10375880;28;19926;-66
2022/05/28 17:19:52;;;;;;;;;;;;;;;11.42;100.00;99950.41;10377542;28;20235;-68
2022/05/28 17:24:56;;;;;;;;;;;;;;;11.24;100.00;99937.75;10377144;28;19926;-66
2022/05/28 17:29:59;;;;;;;;;;;;;;;11.35;100.00;99944.47;10376761;28;19936;-69
2022/05/28 17:35:04;;;;;;;;;;;;;;;10.97;100.00;99957.34;10379048;28;19935;-68
2022/05/28 17:40:10;;;;;;;;;;;;;;;10.69;100.00;99950.03;10591503;28;19924;-68
2022/05/28 17:45:13;;;;;;;;;;;;;;;10.73;100.00;99957.78;10591268;28;19927;-66
2022/05/28 17:50:18;;;;;;;;;;;;;;;10.69;100.00;99952.63;10590817;28;19923;-67
2022/05/28 17:55:21;;;;;;;;;;;;;;;10.73;100.00;99957.78;10590668;28;19923;-65
2022/05/28 18:00:26;;;;;;;;;;;;;;;10.87;100.00;99958.34;10590402;28;19923;-66
2022/05/28 18:05:31;;;;;;;;;;;;;;;10.85;100.00;99964.47;10589194;28;19932;-66
2022/05/28 18:10:34;;;;;;;;;;;;;;;10.49;100.00;99960.78;10586915;28;19927;-66
2022/05/28 18:15:46;;;;;;;;;;;;;;;10.46;100.00;99966.00;10586917;28;20447;-69
2022/05/28 18:20:50;;;;;;;;;;;;;;;10.60;100.00;99964.03;10586595;28;19946;-66
2022/05/28 18:25:54;;;;;;;;;;;;;;;10.53;100.00;99974.56;10585405;28;19959;-67
2022/05/28 18:30:57;;;;;;;;;;;;;;;10.62;100.00;99964.88;10586281;28;20332;-66
2022/05/28 18:36:05;;;;;;;;;;;;;;;10.26;100.00;99974.09;10585829;28;19930;-68
2022/05/28 18:41:12;;;;;;;;;;;;;;;10.49;100.00;99968.56;10585788;28;20366;-64
2022/05/28 18:46:16;;;;;;;;;;;;;;;10.43;100.00;99982.47;10174320;28;10000237;-66
2022/05/28 18:51:23;;;;;;;;;;;;;;;10.22;100.00;99979.34;10412161;28;19981;-69
2022/05/28 18:56:28;;;;;;;;;;;;;;;10.56;100.00;99982.28;10412357;28;19925;-67
2022/05/28 19:01:31;;;;;;;;;;;;;;;10.25;100.00;99984.50;10412005;28;20028;-69
2022/05/28 19:06:40;;;;;;;;;;;;;;;10.19;100.00;99988.03;10411606;28;19929;-67
2022/05/28 19:11:45;;;;;;;;;;;;;;;10.32;100.00;99992.16;10411662;28;20347;-67
2022/05/28 19:16:50;;;;;;;;;;;;;;;10.31;100.00;99987.84;10411171;28;19939;-68
2022/05/28 19:21:54;;;;;;;;;;;;;;;10.45;100.00;99998.00;10411001;28;19929;-67
2022/05/28 19:27:11;;;;;;;;;;;;;;;10.42;100.00;99987.69;10411141;28;19935;-67
2022/05/28 19:32:19;;;;;;;;;;;;;;;10.34;100.00;99990.38;10411255;28;20027;-64
2022/05/28 19:37:24;;;;;;;;;;;;;;;10.48;100.00;99984.97;10410855;28;19925;-68
2022/05/28 19:42:29;;;;;;;;;;;;;;;10.61;100.00;99981.34;10410474;28;19937;-64
2022/05/28 19:47:32;;;;;;;;;;;;;;;10.68;100.00;99993.34;10384882;28;20024;-68
2022/05/28 19:52:37;;;;;;;;;;;;;;;10.70;100.00;99996.72;10369582;28;20034;-66
2022/05/28 19:57:40;;;;;;;;;;;;;;;10.84;100.00;99989.56;10369190;28;19936;-66
2022/05/28 20:02:44;;;;;;;;;;;;;;;10.86;100.00;99986.94;10369169;28;19939;-66
2022/05/28 20:07:51;;;;;;;;;;;;;;;10.81;100.00;99991.38;10368383;28;20129;-66
2022/05/28 20:12:55;;;;;;;;;;;;;;;10.89;100.00;100003.31;10368769;28;20012;-68
2022/05/28 20:18:00;;;;;;;;;;;;;;;10.93;100.00;99992.00;10368875;28;19925;-67
2022/05/28 20:23:06;;;;;;;;;;;;;;;10.78;100.00;100002.66;10368399;28;19961;-67
2022/05/28 20:28:10;;;;;;;;;;;;;;;10.91;100.00;100004.16;10368430;28;19925;-70
2022/05/28 20:33:17;;;;;;;;;;;;;;;10.98;100.00;100007.50;10368374;28;19930;-68
2022/05/28 20:38:22;;;;;;;;;;;;;;;11.02;100.00;100002.25;10368256;28;19935;-68
2022/05/28 20:43:25;;;;;;;;;;;;;;;11.16;100.00;100007.19;10368149;28;19934;-69
2022/05/28 20:48:30;;;;;;;;;;;;;;;10.97;100.00;100003.22;10404638;28;19936;-66
2022/05/28 20:53:37;;;;;;;;;;;;;;;11.03;100.00;100008.28;10415678;28;19925;-67
2022/05/28 20:58:40;;;;;;;;;;;;;;;11.10;100.00;100010.75;10416007;28;19925;-66
2022/05/28 21:03:44;;;;;;;;;;;;;;;11.16;100.00;100004.59;10415254;28;19935;-66
2022/05/28 21:08:49;;;;;;;;;;;;;;;11.03;100.00;100003.09;10508162;28;20471;-68
2022/05/28 21:13:52;;;;;;;;;;;;;;;11.04;100.00;99999.63;10589926;28;20481;-66
2022/05/28 21:18:56;;;;;;;;;;;;;;;10.97;100.00;99996.28;10428665;28;20550;-66
2022/05/28 21:24:01;;;;;;;;;;;;;;;10.85;100.00;99993.03;10374224;28;19933;-66
2022/05/28 21:34:26;;;;;;;;;;;;;;;10.93;100.00;99996.34;10373955;28;20145;-67
2022/05/28 21:39:30;;;;;;;;;;;;;;;10.97;100.00;99996.28;10373593;28;19935;-65
2022/05/28 21:44:34;;;;;;;;;;;;;;;10.86;100.00;100015.50;10375697;28;20228;-64
2022/05/28 21:49:38;;;;;;;;;;;;;;;10.95;100.00;100000.63;10376402;28;19935;-65
2022/05/28 21:54:44;;;;;;;;;;;;;;;10.93;100.00;99993.75;10376189;28;19932;-67
2022/05/28 21:59:47;;;;;;;;;;;;;;;11.09;100.00;100000.41;10375044;28;19936;-66
2022/05/28 22:04:50;;;;;;;;;;;;;;;11.04;100.00;100010.88;10375977;28;19952;-66
2022/05/28 22:09:55;;;;;;;;;;;;;;;11.11;100.00;100006.41;10376329;28;19935;-64
2022/05/28 22:14:58;;;;;;;;;;;;;;;10.99;100.00;100002.28;10375549;28;19926;-65
2022/05/28 22:20:01;;;;;;;;;;;;;;;10.90;100.00;100010.25;10375454;28;20239;-64
2022/05/28 22:25:06;;;;;;;;;;;;;;;10.83;100.00;100006.03;10375386;28;19925;-67
2022/05/28 22:30:09;;;;;;;;;;;;;;;10.90;100.00;100009.38;10375205;28;20459;-64
2022/05/28 22:35:13;;;;;;;;;;;;;;;10.91;100.00;100005.91;10375196;28;19930;-65
2022/05/28 22:40:18;;;;;;;;;;;;;;;10.68;100.00;100003.72;10374847;28;19940;-69
2022/05/28 22:45:21;;;;;;;;;;;;;;;10.65;100.00;100006.34;10374781;28;19926;-64
2022/05/28 22:50:26;;;;;;;;;;;;;;;10.63;100.00;100007.25;10374823;28;20381;-65
2022/05/28 22:55:31;;;;;;;;;;;;;;;10.66;100.00;99999.41;10374218;28;19933;-67
2022/05/28 23:00:42;;;;;;;;;;;;;;;10.98;100.00;99992.78;10374044;28;19925;-68
2022/05/28 23:05:47;;;;;;;;;;;;;;;11.08;100.00;99996.94;10374160;28;19926;-65
2022/05/28 23:10:51;;;;;;;;;;;;;;;11.01;100.00;99992.72;10373901;28;19936;-62
2022/05/28 23:15:55;;;;;;;;;;;;;;;10.80;100.00;99997.44;10374000;28;20246;-63
2022/05/28 23:20:59;;;;;;;;;;;;;;;10.63;100.00;100007.25;10373903;28;20255;-63
2022/05/28 23:26:04;;;;;;;;;;;;;;;10.87;100.00;100007.69;10373453;28;19925;-66
2022/05/28 23:31:10;;;;;;;;;;;;;;;10.79;100.00;100008.69;10373121;28;19965;-66
2022/05/28 23:36:14;;;;;;;;;;;;;;;10.65;100.00;100018.47;10373171;28;19929;-64
2022/05/28 23:41:19;;;;;;;;;;;;;;;10.73;100.00;100012.28;10373002;28;19925;-66
2022/05/28 23:46:25;;;;;;;;;;;;;;;10.72;100.00;100012.28;10372807;28;19930;-65
2022/05/28 23:51:28;;;;;;;;;;;;;;;10.74;100.00;100003.59;10373018;28;19988;-62
2022/05/28 23:56:33;;;;;;;;;;;;;;;10.90;100.00;100007.66;10372737;28;19925;-62
